createdAt,value
2019-04-29T00:02:25.192Z,6.25
2019-04-29T00:04:53.637Z,5.78
2019-04-29T00:07:22.495Z,6.87
2019-04-29T00:09:51.869Z,12.47
2019-04-29T00:12:20.622Z,4.28
2019-04-29T00:14:50.977Z,4.62
2019-04-29T00:17:21.467Z,5.05
2019-04-29T00:20:09.986Z,4.90
2019-04-29T00:22:39.471Z,6.42
2019-04-29T00:25:08.397Z,4.97
2019-04-29T00:27:36.916Z,5.97
2019-04-29T00:30:08.666Z,6.58
2019-04-29T00:32:37.493Z,5.33
2019-04-29T00:35:07.696Z,4.72
2019-04-29T00:37:37.780Z,4.70
2019-04-29T00:40:20.601Z,7.65
2019-04-29T00:42:51.132Z,7.00
2019-04-29T00:45:19.698Z,4.45
2019-04-29T00:47:48.164Z,4.75
2019-04-29T00:50:16.600Z,3.65
2019-04-29T00:52:45.145Z,3.17
2019-04-29T00:55:21.795Z,4.72
2019-04-29T00:57:50.306Z,5.08
2019-04-29T01:00:20.486Z,4.72
2019-04-29T01:02:48.965Z,4.33
2019-04-29T01:05:17.834Z,5.10
2019-04-29T01:07:46.644Z,4.22
2019-04-29T01:10:15.631Z,4.87
2019-04-29T01:12:44.100Z,5.90
2019-04-29T01:15:15.702Z,6.67
2019-04-29T01:17:44.570Z,7.70
2019-04-29T01:20:13.305Z,8.00
2019-04-29T01:22:42.798Z,6.78
2019-04-29T01:25:11.212Z,5.65
2019-04-29T01:27:41.619Z,6.83
2019-04-29T01:30:14.325Z,5.95
2019-04-29T01:32:43.161Z,5.42
2019-04-29T01:35:11.662Z,5.90
2019-04-29T01:37:41.704Z,6.58
2019-04-29T01:40:14.345Z,7.80
2019-04-29T01:42:58.289Z,7.60
2019-04-29T01:45:26.820Z,7.17
2019-04-29T01:47:55.663Z,7.10
2019-04-29T01:50:24.189Z,7.50
2019-04-29T01:52:53.046Z,10.20
2019-04-29T01:55:21.775Z,7.40
2019-04-29T01:57:50.262Z,5.85
2019-04-29T02:00:18.691Z,8.28
2019-04-29T02:02:47.179Z,7.50
2019-04-29T02:05:15.609Z,6.20
2019-04-29T02:07:44.353Z,6.70
2019-04-29T02:10:17.566Z,7.22
2019-04-29T02:12:46.455Z,7.50
2019-04-29T02:15:14.924Z,7.75
2019-04-29T02:17:43.839Z,7.25
2019-04-29T02:20:12.334Z,7.47
2019-04-29T02:22:48.986Z,8.58
2019-04-29T02:25:19.123Z,8.15
2019-04-29T02:27:47.912Z,8.60
2019-04-29T02:30:35.331Z,6.60
2019-04-29T02:33:03.774Z,7.37
2019-04-29T02:35:32.261Z,7.28
2019-04-29T02:38:01.201Z,7.75
2019-04-29T02:40:31.340Z,8.43
2019-04-29T02:43:13.919Z,7.33
2019-04-29T02:45:42.722Z,7.72
2019-04-29T02:48:11.190Z,7.30
2019-04-29T02:50:47.701Z,7.40
2019-04-29T02:53:16.175Z,7.08
2019-04-29T02:55:46.308Z,7.80
2019-04-29T02:58:25.540Z,7.83
2019-04-29T03:01:12.146Z,7.12
2019-04-29T03:04:00.229Z,6.33
2019-04-29T03:06:35.063Z,7.25
2019-04-29T03:09:03.981Z,7.85
2019-04-29T03:11:32.506Z,7.30
2019-04-29T03:14:01.493Z,8.50
2019-04-29T03:16:29.962Z,6.05
2019-04-29T03:19:00.072Z,6.55
2019-04-29T03:21:30.192Z,6.42
2019-04-29T03:24:00.006Z,6.53
2019-04-29T03:26:28.469Z,7.10
2019-04-29T03:28:56.966Z,8.03
2019-04-29T03:31:25.901Z,7.03
2019-04-29T03:33:54.350Z,9.50
2019-04-29T03:36:22.806Z,7.72
2019-04-29T03:38:51.585Z,11.40
2019-04-29T03:41:20.434Z,8.95
2019-04-29T03:43:48.891Z,5.80
2019-04-29T03:46:17.817Z,6.08
2019-04-29T03:48:46.710Z,5.25
2019-04-29T03:51:15.427Z,6.28
2019-04-29T03:53:44.845Z,5.95
2019-04-29T03:56:13.267Z,6.67
2019-04-29T03:58:41.750Z,6.15
2019-04-29T04:01:24.277Z,6.55
2019-04-29T04:04:03.166Z,5.22
2019-04-29T04:06:33.243Z,6.22
2019-04-29T04:09:08.835Z,6.75
2019-04-29T04:11:37.339Z,7.25
2019-04-29T04:14:05.793Z,7.30
2019-04-29T04:16:36.267Z,6.47
2019-04-29T04:19:06.154Z,6.28
2019-04-29T04:21:34.727Z,7.10
2019-04-29T04:24:03.134Z,7.30
2019-04-29T04:26:31.943Z,5.87
2019-04-29T04:29:00.389Z,6.55
2019-04-29T04:31:28.868Z,6.28
2019-04-29T04:34:00.018Z,6.28
2019-04-29T04:36:31.919Z,4.87
2019-04-29T04:39:00.464Z,6.10
2019-04-29T04:41:28.872Z,4.35
2019-04-29T04:43:57.395Z,4.78
2019-04-29T04:46:26.046Z,6.12
2019-04-29T04:48:54.583Z,6.90
2019-04-29T04:51:23.367Z,5.75
2019-04-29T04:53:52.737Z,5.72
2019-04-29T04:56:21.326Z,6.10
2019-04-29T04:58:50.157Z,6.78
2019-04-29T05:01:20.971Z,7.17
2019-04-29T05:03:55.993Z,7.35
2019-04-29T05:06:31.691Z,7.87
2019-04-29T05:09:20.345Z,6.08
2019-04-29T05:11:49.169Z,7.17
2019-04-29T05:14:18.001Z,6.25
2019-04-29T05:16:46.453Z,6.70
2019-04-29T05:19:15.691Z,7.20
2019-04-29T05:21:50.524Z,6.60
2019-04-29T05:24:27.860Z,7.78
2019-04-29T05:27:08.532Z,7.10
2019-04-29T05:29:38.981Z,7.67
2019-04-29T05:32:09.372Z,7.33
2019-04-29T05:34:48.202Z,7.80
2019-04-29T05:37:18.158Z,8.40
2019-04-29T05:39:54.370Z,8.60
2019-04-29T05:42:23.133Z,9.38
2019-04-29T05:44:57.142Z,8.90
2019-04-29T05:47:39.709Z,9.13
2019-04-29T05:50:16.863Z,9.90
2019-04-29T05:53:03.655Z,9.48
2019-04-29T05:55:32.135Z,9.20
2019-04-29T05:58:12.834Z,10.68
2019-04-29T06:00:54.133Z,9.58
2019-04-29T06:03:22.954Z,10.70
2019-04-29T06:05:51.399Z,10.03
2019-04-29T06:08:20.243Z,11.45
2019-04-29T06:10:48.670Z,10.45
2019-04-29T06:13:32.860Z,11.00
2019-04-29T06:16:01.656Z,10.40
2019-04-29T06:18:30.443Z,10.48
2019-04-29T06:21:08.954Z,12.18
2019-04-29T06:23:28.998Z,11.80
2019-04-29T06:26:04.575Z,12.58
2019-04-29T06:28:33.057Z,11.63
2019-04-29T06:31:01.535Z,13.72
2019-04-29T06:33:31.027Z,13.05
2019-04-29T06:35:59.889Z,11.93
2019-04-29T06:38:28.332Z,12.73
2019-04-29T06:41:05.557Z,12.00
2019-04-29T06:43:32.676Z,12.07
2019-04-29T06:46:01.144Z,12.33
2019-04-29T06:48:29.571Z,12.73
2019-04-29T06:50:58.368Z,11.83
2019-04-29T06:53:26.887Z,13.53
2019-04-29T06:55:55.367Z,12.53
2019-04-29T06:58:24.703Z,12.43
2019-04-29T07:00:55.855Z,11.90
2019-04-29T07:03:25.460Z,12.20
2019-04-29T07:05:56.121Z,13.75
2019-04-29T07:08:24.588Z,11.80
2019-04-29T07:10:55.883Z,12.25
2019-04-29T07:13:24.623Z,13.03
2019-04-29T07:15:56.077Z,12.60
2019-04-29T07:18:24.549Z,12.65
2019-04-29T07:20:56.016Z,12.60
2019-04-29T07:23:33.754Z,12.95
2019-04-29T07:26:02.196Z,12.43
2019-04-29T07:28:30.686Z,12.85
2019-04-29T07:31:02.492Z,12.63
2019-04-29T07:33:29.542Z,10.50
2019-04-29T07:36:10.402Z,9.08
2019-04-29T07:38:40.719Z,8.68
2019-04-29T07:41:01.804Z,9.50
2019-04-29T07:43:30.641Z,9.40
2019-04-29T07:46:12.622Z,8.33
2019-04-29T07:48:42.053Z,8.70
2019-04-29T07:51:11.216Z,6.33
2019-04-29T07:53:45.042Z,6.03
2019-04-29T07:56:09.766Z,5.22
2019-04-29T07:58:38.193Z,6.08
2019-04-29T08:01:07.090Z,4.72
2019-04-29T08:03:35.924Z,4.37
2019-04-29T08:06:04.772Z,3.98
2019-04-29T08:08:36.308Z,4.90
2019-04-29T08:11:04.855Z,3.67
2019-04-29T08:13:33.319Z,3.92
2019-04-29T08:16:01.787Z,4.22
2019-04-29T08:18:30.275Z,4.35
2019-04-29T08:20:59.108Z,3.77
2019-04-29T08:23:27.937Z,3.33
2019-04-29T08:26:02.996Z,3.10
2019-04-29T08:28:32.255Z,3.12
2019-04-29T08:31:00.698Z,3.52
2019-04-29T08:33:30.453Z,3.37
2019-04-29T08:35:58.883Z,4.00
2019-04-29T08:38:27.729Z,3.60
2019-04-29T08:40:56.228Z,3.45
2019-04-29T08:43:35.468Z,3.80
2019-04-29T08:46:05.582Z,3.70
2019-04-29T08:48:34.354Z,3.37
2019-04-29T08:51:03.023Z,3.45
2019-04-29T08:53:39.501Z,3.65
2019-04-29T08:56:10.309Z,4.20
2019-04-29T08:58:39.524Z,3.27
2019-04-29T09:01:29.195Z,3.27
2019-04-29T09:03:58.177Z,3.85
2019-04-29T09:06:51.674Z,3.02
2019-04-29T09:09:28.502Z,3.50
2019-04-29T09:11:50.293Z,3.45
2019-04-29T09:14:18.772Z,3.67
2019-04-29T09:16:47.396Z,4.35
2019-04-29T09:19:16.186Z,3.77
2019-04-29T09:21:46.556Z,3.75
2019-04-29T09:24:15.383Z,4.22
2019-04-29T09:26:45.458Z,5.28
2019-04-29T09:29:33.583Z,4.62
2019-04-29T09:32:03.106Z,4.42
2019-04-29T09:34:35.695Z,4.12
2019-04-29T09:37:04.194Z,3.75
2019-04-29T09:39:42.824Z,3.58
2019-04-29T09:42:13.306Z,4.00
2019-04-29T09:45:02.478Z,3.72
2019-04-29T09:47:31.712Z,3.30
2019-04-29T09:50:00.184Z,3.12
2019-04-29T09:52:28.997Z,3.72
2019-04-29T09:55:05.933Z,2.87
2019-04-29T09:57:34.311Z,3.40
2019-04-29T10:00:06.911Z,3.00
2019-04-29T10:03:24.455Z,3.17
2019-04-29T10:06:06.511Z,3.50
2019-04-29T10:08:35.059Z,3.80
2019-04-29T10:11:03.503Z,3.12
2019-04-29T10:13:31.991Z,3.77
2019-04-29T10:16:09.230Z,3.90
2019-04-29T10:18:39.254Z,3.42
2019-04-29T10:21:11.954Z,4.67
2019-04-29T10:23:40.501Z,3.85
2019-04-29T10:26:10.280Z,4.10
2019-04-29T10:28:40.712Z,3.50
2019-04-29T10:31:09.186Z,4.55
2019-04-29T10:33:40.855Z,4.08
2019-04-29T10:36:09.281Z,4.53
2019-04-29T10:38:44.964Z,4.47
2019-04-29T10:41:35.905Z,4.05
2019-04-29T10:44:07.044Z,4.62
2019-04-29T10:46:41.191Z,4.33
2019-04-29T10:49:11.378Z,4.47
2019-04-29T10:51:40.001Z,4.83
2019-04-29T10:54:14.103Z,4.90
2019-04-29T10:56:42.056Z,5.08
2019-04-29T10:59:11.183Z,5.00
2019-04-29T11:02:19.203Z,4.80
2019-04-29T11:04:49.336Z,4.90
2019-04-29T11:07:31.770Z,5.45
2019-04-29T11:10:04.342Z,5.50
2019-04-29T11:12:32.769Z,5.55
2019-04-29T11:15:01.913Z,5.08
2019-04-29T11:17:31.494Z,5.95
2019-04-29T11:20:00.037Z,5.35
2019-04-29T11:22:34.069Z,5.95
2019-04-29T11:25:07.957Z,5.90
2019-04-29T11:27:43.926Z,5.72
2019-04-29T11:30:14.033Z,5.78
2019-04-29T11:32:44.561Z,5.92
2019-04-29T11:35:31.156Z,5.95
2019-04-29T11:37:59.941Z,5.65
2019-04-29T11:40:42.589Z,6.58
2019-04-29T11:43:03.067Z,5.95
2019-04-29T11:45:33.898Z,5.92
2019-04-29T11:48:02.088Z,7.05
2019-04-29T11:50:34.108Z,6.60
2019-04-29T11:53:03.043Z,7.42
2019-04-29T11:55:31.810Z,7.72
2019-04-29T11:58:01.882Z,6.87
2019-04-29T12:00:38.326Z,6.75
2019-04-29T12:03:18.952Z,7.45
2019-04-29T12:05:47.139Z,7.20
2019-04-29T12:08:17.084Z,5.95
2019-04-29T12:10:51.985Z,7.03
2019-04-29T12:13:18.971Z,6.60
2019-04-29T12:15:58.072Z,6.42
2019-04-29T12:18:28.189Z,6.22
2019-04-29T12:21:01.258Z,6.70
2019-04-29T12:23:29.756Z,6.97
2019-04-29T12:26:02.513Z,6.95
2019-04-29T12:28:28.720Z,7.65
2019-04-29T12:31:05.637Z,8.43
2019-04-29T12:33:38.188Z,8.75
2019-04-29T12:36:11.421Z,9.30
2019-04-29T12:38:48.815Z,9.00
2019-04-29T12:41:29.808Z,10.30
2019-04-29T12:43:59.812Z,10.05
2019-04-29T12:46:35.624Z,10.13
2019-04-29T12:49:08.686Z,9.60
2019-04-29T12:51:34.589Z,10.03
2019-04-29T12:54:03.023Z,9.45
2019-04-29T12:56:33.142Z,10.10
2019-04-29T12:59:01.947Z,9.55
2019-04-29T13:01:50.795Z,9.88
2019-04-29T13:04:10.825Z,9.93
2019-04-29T13:06:56.100Z,10.78
2019-04-29T13:09:29.644Z,9.83
2019-04-29T13:12:18.028Z,9.53
2019-04-29T13:14:33.244Z,9.10
2019-04-29T13:17:15.058Z,9.98
2019-04-29T13:19:50.273Z,8.60
2019-04-29T13:22:17.100Z,9.45
2019-04-29T13:24:45.749Z,9.85
2019-04-29T13:27:16.291Z,9.78
2019-04-29T13:29:47.606Z,9.53
2019-04-29T13:32:16.086Z,8.60
2019-04-29T13:34:46.163Z,9.15
2019-04-29T13:37:18.993Z,8.70
2019-04-29T13:39:45.124Z,8.80
2019-04-29T13:42:15.815Z,9.40
2019-04-29T13:45:04.503Z,9.33
2019-04-29T13:47:15.731Z,10.15
2019-04-29T13:49:49.100Z,10.32
2019-04-29T13:52:28.842Z,9.68
2019-04-29T13:54:57.347Z,10.78
2019-04-29T13:57:25.822Z,10.15
2019-04-29T14:00:07.669Z,10.53
2019-04-29T14:02:40.075Z,11.73
2019-04-29T14:05:10.206Z,11.00
2019-04-29T14:07:39.583Z,11.28
2019-04-29T14:10:14.998Z,11.78
2019-04-29T14:12:48.353Z,10.98
2019-04-29T14:15:12.542Z,12.23
2019-04-29T14:17:41.000Z,12.00
2019-04-29T14:20:29.270Z,11.73
2019-04-29T14:22:58.084Z,11.15
2019-04-29T14:25:43.847Z,11.28
2019-04-29T14:28:12.723Z,12.65
2019-04-29T14:30:43.717Z,12.68
2019-04-29T14:33:12.698Z,13.58
2019-04-29T14:35:49.983Z,12.78
2019-04-29T14:38:20.193Z,14.75
2019-04-29T14:40:48.601Z,13.10
2019-04-29T14:43:35.324Z,13.40
2019-04-29T14:46:15.700Z,14.65
2019-04-29T14:48:49.291Z,14.75
2019-04-29T14:51:17.725Z,14.33
2019-04-29T14:53:57.281Z,14.93
2019-04-29T14:56:28.063Z,14.53
2019-04-29T14:59:06.659Z,13.00
2019-04-29T15:01:28.468Z,13.38
2019-04-29T15:04:17.804Z,14.25
2019-04-29T15:06:37.848Z,13.38
2019-04-29T15:09:16.748Z,13.03
2019-04-29T15:14:35.576Z,12.73
2019-04-29T15:17:10.551Z,11.93
2019-04-29T15:19:55.737Z,11.20
2019-04-29T15:22:33.852Z,10.85
2019-04-29T15:25:06.469Z,10.80
2019-04-29T15:27:37.187Z,7.80
2019-04-29T15:30:07.950Z,7.33
2019-04-29T15:32:36.454Z,7.15
2019-04-29T15:35:08.029Z,7.10
2019-04-29T15:37:37.414Z,6.70
2019-04-29T15:40:07.706Z,6.05
2019-04-29T15:42:37.951Z,6.83
2019-04-29T15:45:10.301Z,6.30
2019-04-29T15:47:49.754Z,6.72
2019-04-29T15:50:19.300Z,7.75
2019-04-29T15:52:47.979Z,7.37
2019-04-29T15:55:26.368Z,7.35
2019-04-29T15:58:00.073Z,7.45
2019-04-29T16:00:40.541Z,8.28
2019-04-29T16:03:12.573Z,7.30
2019-04-29T16:05:56.030Z,8.55
2019-04-29T16:08:34.736Z,7.58
2019-04-29T16:11:42.338Z,7.78
2019-04-29T16:14:18.665Z,13.40
2019-04-29T16:16:47.147Z,9.50
2019-04-29T16:19:15.954Z,9.80
2019-04-29T16:21:52.834Z,11.43
2019-04-29T16:24:27.359Z,10.28
2019-04-29T16:26:53.952Z,9.93
2019-04-29T16:29:22.823Z,11.97
2019-04-29T16:31:55.061Z,12.05
2019-04-29T16:34:21.818Z,12.55
2019-04-29T16:36:52.624Z,12.43
2019-04-29T16:39:20.975Z,13.88
2019-04-29T16:42:10.714Z,14.87
2019-04-29T16:44:42.471Z,13.58
2019-04-29T16:47:13.431Z,12.07
2019-04-29T16:49:42.164Z,11.65
2019-04-29T16:52:10.655Z,10.53
2019-04-29T16:54:47.596Z,12.58
2019-04-29T16:57:16.100Z,13.03
2019-04-29T16:59:44.951Z,13.15
2019-04-29T17:02:19.114Z,14.85
2019-04-29T17:05:02.800Z,12.45
2019-04-29T17:07:43.239Z,14.33
2019-04-29T17:10:13.993Z,15.58
2019-04-29T17:12:44.076Z,15.45
2019-04-29T17:15:27.850Z,15.95
2019-04-29T17:17:56.337Z,14.65
2019-04-29T17:20:25.145Z,16.62
2019-04-29T17:22:54.043Z,16.48
2019-04-29T17:25:23.190Z,18.45
2019-04-29T17:27:56.042Z,18.02
2019-04-29T17:30:46.636Z,19.42
2019-04-29T17:33:28.526Z,19.12
2019-04-29T17:35:57.796Z,20.60
2019-04-29T17:38:26.242Z,20.37
2019-04-29T17:40:55.065Z,19.75
2019-04-29T17:43:44.653Z,20.77
2019-04-29T17:46:29.907Z,20.92
2019-04-29T17:49:12.191Z,21.85
2019-04-29T17:51:47.422Z,21.15
2019-04-29T17:54:18.090Z,20.20
2019-04-29T17:57:15.339Z,21.45
2019-04-29T17:59:40.879Z,20.75
2019-04-29T18:02:21.970Z,19.70
2019-04-29T18:04:56.002Z,21.35
2019-04-29T18:07:32.563Z,19.73
2019-04-29T18:10:24.098Z,20.52
2019-04-29T18:13:06.421Z,19.50
2019-04-29T18:16:00.983Z,20.02
2019-04-29T18:19:00.544Z,20.00
2019-04-29T18:21:28.390Z,20.12
2019-04-29T18:24:01.482Z,20.12
2019-04-29T18:26:44.288Z,18.32
2019-04-29T18:29:21.398Z,20.05
2019-04-29T18:31:49.972Z,21.20
2019-04-29T18:34:18.474Z,19.73
2019-04-29T18:36:46.902Z,19.87
2019-04-29T18:39:20.051Z,18.65
2019-04-29T18:41:47.360Z,18.42
2019-04-29T18:44:19.509Z,20.12
2019-04-29T18:46:57.327Z,17.40
2019-04-29T18:49:25.897Z,17.60
2019-04-29T18:51:57.940Z,18.20
2019-04-29T18:54:26.952Z,18.17
2019-04-29T18:56:55.992Z,17.48
2019-04-29T18:59:33.475Z,16.05
2019-04-29T19:01:56.545Z,19.52
2019-04-29T19:04:29.628Z,17.65
2019-04-29T19:07:02.125Z,16.48
2019-04-29T19:09:32.321Z,16.30
2019-04-29T19:12:01.412Z,13.80
2019-04-29T19:14:29.850Z,13.72
2019-04-29T19:17:01.241Z,14.05
2019-04-29T19:19:30.856Z,13.30
2019-04-29T19:22:00.768Z,14.10
2019-04-29T19:24:31.420Z,13.28
2019-04-29T19:27:00.610Z,13.85
2019-04-29T19:29:29.718Z,12.43
2019-04-29T19:31:59.118Z,12.63
2019-04-29T19:34:39.628Z,12.68
2019-04-29T19:36:59.398Z,12.43
2019-04-29T19:39:28.854Z,12.25
2019-04-29T19:41:58.393Z,13.00
2019-04-29T19:44:33.451Z,12.85
2019-04-29T19:46:58.988Z,12.80
2019-04-29T19:49:27.095Z,12.63
2019-04-29T19:51:55.643Z,25.17
2019-04-29T19:54:28.387Z,13.00
2019-04-29T19:57:03.570Z,13.28
2019-04-29T19:59:36.464Z,13.43
2019-04-29T20:02:12.904Z,12.98
2019-04-29T20:05:04.621Z,12.30
2019-04-29T20:07:40.706Z,13.75
2019-04-29T20:10:11.641Z,13.95
2019-04-29T20:12:57.801Z,14.07
2019-04-29T20:15:26.933Z,13.60
2019-04-29T20:18:13.893Z,14.80
2019-04-29T20:20:46.255Z,14.28
2019-04-29T20:23:19.979Z,14.63
2019-04-29T20:25:48.067Z,14.45
2019-04-29T20:28:18.483Z,14.15
2019-04-29T20:30:50.067Z,15.08
2019-04-29T20:33:22.399Z,13.62
2019-04-29T20:36:01.965Z,15.13
2019-04-29T20:38:29.832Z,15.25
2019-04-29T20:40:57.393Z,14.18
2019-04-29T20:43:29.609Z,14.40
2019-04-29T20:46:04.525Z,13.93
2019-04-29T20:48:40.588Z,14.68
2019-04-29T20:51:13.265Z,12.63
2019-04-29T20:53:51.077Z,14.10
2019-04-29T20:56:27.411Z,14.25
2019-04-29T20:58:50.874Z,14.20
2019-04-29T21:01:25.466Z,14.15
2019-04-29T21:03:56.594Z,14.47
2019-04-29T21:06:24.244Z,13.80
2019-04-29T21:08:52.794Z,15.30
2019-04-29T21:11:32.230Z,14.68
2019-04-29T21:14:09.328Z,15.00
2019-04-29T21:16:39.729Z,16.25
2019-04-29T21:19:08.943Z,15.90
2019-04-29T21:21:42.042Z,17.95
2019-04-29T21:24:14.006Z,16.45
2019-04-29T21:26:44.436Z,17.32
2019-04-29T21:29:15.807Z,16.82
2019-04-29T21:31:50.710Z,17.40
2019-04-29T21:34:18.273Z,18.35
2019-04-29T21:37:10.101Z,19.48
2019-04-29T21:39:55.301Z,17.77
2019-04-29T21:42:29.172Z,18.32
2019-04-29T21:45:17.769Z,19.62
2019-04-29T21:47:53.042Z,18.27
2019-04-29T21:50:16.353Z,18.35
2019-04-29T21:52:46.905Z,18.67
2019-04-29T21:55:16.069Z,18.32
2019-04-29T21:57:45.266Z,19.37
2019-04-29T22:00:15.637Z,20.62
2019-04-29T22:02:46.613Z,19.60
2019-04-29T22:05:18.200Z,19.77
2019-04-29T22:07:47.372Z,20.68
2019-04-29T22:10:15.383Z,20.68
2019-04-29T22:12:44.252Z,20.70
2019-04-29T22:15:15.835Z,21.40
2019-04-29T22:17:55.631Z,21.05
2019-04-29T22:20:15.918Z,21.02
2019-04-29T22:22:45.585Z,20.57
2019-04-29T22:25:15.747Z,20.43
2019-04-29T22:27:45.072Z,21.17
2019-04-29T22:30:18.514Z,22.73
2019-04-29T22:32:47.218Z,22.17
2019-04-29T22:35:17.520Z,21.65
2019-04-29T22:37:58.137Z,21.93
2019-04-29T22:40:26.654Z,20.45
2019-04-29T22:43:16.714Z,21.12
2019-04-29T22:45:48.628Z,21.68
2019-04-29T22:48:19.806Z,22.32
2019-04-29T22:50:48.370Z,21.97
2019-04-29T22:53:16.819Z,21.07
2019-04-29T22:55:51.271Z,21.62
2019-04-29T22:58:19.734Z,22.35
2019-04-29T23:00:48.645Z,23.25
2019-04-29T23:03:17.416Z,22.75
2019-04-29T23:05:46.152Z,24.52
2019-04-29T23:08:15.220Z,24.07
2019-04-29T23:10:45.600Z,23.98
2019-04-29T23:13:14.185Z,25.08
2019-04-29T23:15:42.822Z,23.42
2019-04-29T23:18:11.701Z,24.63
2019-04-29T23:20:45.549Z,26.48
2019-04-29T23:23:27.295Z,26.42
2019-04-29T23:25:55.697Z,27.20
2019-04-29T23:28:26.942Z,24.35
2019-04-29T23:31:06.694Z,25.08
2019-04-29T23:33:36.122Z,25.72
2019-04-29T23:36:09.569Z,26.93
2019-04-29T23:38:42.338Z,24.92
2019-04-29T23:41:10.244Z,25.77
2019-04-29T23:43:38.689Z,25.80
2019-04-29T23:46:16.116Z,25.30
2019-04-29T23:48:46.487Z,26.27
2019-04-29T23:51:16.969Z,25.17
2019-04-29T23:53:45.418Z,26.57
2019-04-29T23:56:15.337Z,26.10
2019-04-29T23:58:47.086Z,26.48
